sensor_id;sensor_type;location;lat;lon;timestamp;P1;durP1;ratioP1;P2;durP2;ratioP2
71759;SDS011;59919;48.112;16.280;2023-02-18T00:00:50;2.47;;;0.80;;
71759;SDS011;59919;48.112;16.280;2023-02-18T00:03:21;2.67;;;0.60;;
71759;SDS011;59919;48.112;16.280;2023-02-18T00:05:53;2.80;;;0.95;;
71759;SDS011;59919;48.112;16.280;2023-02-18T00:08:27;1.08;;;0.75;;
71759;SDS011;59919;48.112;16.280;2023-02-18T00:10:58;1.23;;;0.82;;
71759;SDS011;59919;48.112;16.280;2023-02-18T00:13:29;1.10;;;0.70;;
71759;SDS011;59919;48.112;16.280;2023-02-18T00:16:03;1.63;;;0.60;;
71759;SDS011;59919;48.112;16.280;2023-02-18T00:18:38;0.80;;;0.60;;
71759;SDS011;59919;48.112;16.280;2023-02-18T00:21:10;0.70;;;0.60;;
71759;SDS011;59919;48.112;16.280;2023-02-18T00:23:41;1.10;;;0.70;;
71759;SDS011;59919;48.112;16.280;2023-02-18T00:26:13;0.82;;;0.80;;
71759;SDS011;59919;48.112;16.280;2023-02-18T00:28:46;2.35;;;0.85;;
71759;SDS011;59919;48.112;16.280;2023-02-18T00:31:19;1.48;;;0.80;;
71759;SDS011;59919;48.112;16.280;2023-02-18T00:33:52;0.82;;;0.70;;
71759;SDS011;59919;48.112;16.280;2023-02-18T00:36:24;0.70;;;0.60;;
71759;SDS011;59919;48.112;16.280;2023-02-18T00:38:57;2.13;;;0.50;;
71759;SDS011;59919;48.112;16.280;2023-02-18T00:41:30;1.10;;;0.50;;
71759;SDS011;59919;48.112;16.280;2023-02-18T00:44:01;1.27;;;0.70;;
71759;SDS011;59919;48.112;16.280;2023-02-18T00:46:33;1.10;;;0.80;;
71759;SDS011;59919;48.112;16.280;2023-02-18T00:49:05;1.13;;;0.70;;
71759;SDS011;59919;48.112;16.280;2023-02-18T00:51:36;1.08;;;0.70;;
71759;SDS011;59919;48.112;16.280;2023-02-18T00:54:11;0.98;;;0.70;;
71759;SDS011;59919;48.112;16.280;2023-02-18T00:56:49;0.85;;;0.70;;
71759;SDS011;59919;48.112;16.280;2023-02-18T00:59:20;2.15;;;0.75;;
71759;SDS011;59919;48.112;16.280;2023-02-18T01:01:51;1.52;;;0.70;;
71759;SDS011;59919;48.112;16.280;2023-02-18T01:04:25;1.25;;;0.60;;
71759;SDS011;59919;48.112;16.280;2023-02-18T01:06:58;1.00;;;0.60;;
71759;SDS011;59919;48.112;16.280;2023-02-18T01:09:29;0.75;;;0.70;;
71759;SDS011;59919;48.112;16.280;2023-02-18T01:12:03;0.82;;;0.60;;
71759;SDS011;59919;48.112;16.280;2023-02-18T01:14:42;1.25;;;0.65;;
71759;SDS011;59919;48.112;16.280;2023-02-18T01:17:13;0.90;;;0.50;;
71759;SDS011;59919;48.112;16.280;2023-02-18T01:19:44;1.70;;;0.70;;
71759;SDS011;59919;48.112;16.280;2023-02-18T01:22:15;0.80;;;0.65;;
71759;SDS011;59919;48.112;16.280;2023-02-18T01:24:49;0.47;;;0.45;;
71759;SDS011;59919;48.112;16.280;2023-02-18T01:27:22;1.10;;;0.60;;
71759;SDS011;59919;48.112;16.280;2023-02-18T01:29:53;0.98;;;0.68;;
71759;SDS011;59919;48.112;16.280;2023-02-18T01:32:24;1.25;;;0.50;;
71759;SDS011;59919;48.112;16.280;2023-02-18T01:34:56;1.02;;;0.57;;
71759;SDS011;59919;48.112;16.280;2023-02-18T01:37:38;0.88;;;0.70;;
71759;SDS011;59919;48.112;16.280;2023-02-18T01:40:13;1.17;;;0.70;;
71759;SDS011;59919;48.112;16.280;2023-02-18T01:42:46;1.70;;;0.80;;
71759;SDS011;59919;48.112;16.280;2023-02-18T01:48:17;0.63;;;0.47;;
71759;SDS011;59919;48.112;16.280;2023-02-18T01:51:04;0.82;;;0.60;;
71759;SDS011;59919;48.112;16.280;2023-02-18T01:53:55;0.80;;;0.57;;
71759;SDS011;59919;48.112;16.280;2023-02-18T01:59:35;0.85;;;0.60;;
71759;SDS011;59919;48.112;16.280;2023-02-18T02:02:10;0.68;;;0.40;;
71759;SDS011;59919;48.112;16.280;2023-02-18T02:04:46;1.00;;;0.60;;
71759;SDS011;59919;48.112;16.280;2023-02-18T02:07:21;0.82;;;0.60;;
71759;SDS011;59919;48.112;16.280;2023-02-18T02:09:54;0.70;;;0.60;;
71759;SDS011;59919;48.112;16.280;2023-02-18T02:17:51;0.50;;;0.50;;
71759;SDS011;59919;48.112;16.280;2023-02-18T02:43:15;1.30;;;0.50;;
71759;SDS011;59919;48.112;16.280;2023-02-18T02:46:08;1.10;;;0.60;;
71759;SDS011;59919;48.112;16.280;2023-02-18T02:52:21;0.50;;;0.45;;
71759;SDS011;59919;48.112;16.280;2023-02-18T02:54:37;0.63;;;0.60;;
71759;SDS011;59919;48.112;16.280;2023-02-18T02:59:43;0.60;;;0.50;;
71759;SDS011;59919;48.112;16.280;2023-02-18T03:02:26;0.50;;;0.50;;
71759;SDS011;59919;48.112;16.280;2023-02-18T03:05:35;0.50;;;0.50;;
71759;SDS011;59919;48.112;16.280;2023-02-18T03:16:36;0.45;;;0.45;;
71759;SDS011;59919;48.112;16.280;2023-02-18T03:24:33;1.17;;;0.57;;
71759;SDS011;59919;48.112;16.280;2023-02-18T03:27:12;0.90;;;0.60;;
71759;SDS011;59919;48.112;16.280;2023-02-18T03:30:15;0.57;;;0.40;;
71759;SDS011;59919;48.112;16.280;2023-02-18T03:32:54;0.95;;;0.50;;
71759;SDS011;59919;48.112;16.280;2023-02-18T03:35:29;0.40;;;0.40;;
71759;SDS011;59919;48.112;16.280;2023-02-18T03:38:02;1.00;;;0.70;;
71759;SDS011;59919;48.112;16.280;2023-02-18T03:40:42;0.57;;;0.38;;
71759;SDS011;59919;48.112;16.280;2023-02-18T03:43:13;0.55;;;0.50;;
71759;SDS011;59919;48.112;16.280;2023-02-18T03:45:44;0.60;;;0.50;;
71759;SDS011;59919;48.112;16.280;2023-02-18T03:48:15;0.50;;;0.40;;
71759;SDS011;59919;48.112;16.280;2023-02-18T03:50:46;0.90;;;0.60;;
71759;SDS011;59919;48.112;16.280;2023-02-18T03:53:26;0.63;;;0.50;;
71759;SDS011;59919;48.112;16.280;2023-02-18T03:55:57;0.80;;;0.50;;
71759;SDS011;59919;48.112;16.280;2023-02-18T03:58:28;0.70;;;0.50;;
71759;SDS011;59919;48.112;16.280;2023-02-18T04:01:00;0.50;;;0.50;;
71759;SDS011;59919;48.112;16.280;2023-02-18T04:03:33;0.40;;;0.40;;
71759;SDS011;59919;48.112;16.280;2023-02-18T04:06:04;0.43;;;0.40;;
71759;SDS011;59919;48.112;16.280;2023-02-18T04:08:36;0.50;;;0.40;;
71759;SDS011;59919;48.112;16.280;2023-02-18T04:11:09;0.40;;;0.40;;
71759;SDS011;59919;48.112;16.280;2023-02-18T04:13:40;0.40;;;0.40;;
71759;SDS011;59919;48.112;16.280;2023-02-18T04:16:11;0.40;;;0.40;;
71759;SDS011;59919;48.112;16.280;2023-02-18T04:18:45;0.57;;;0.55;;
71759;SDS011;59919;48.112;16.280;2023-02-18T04:21:19;0.73;;;0.40;;
71759;SDS011;59919;48.112;16.280;2023-02-18T04:23:52;0.50;;;0.43;;
71759;SDS011;59919;48.112;16.280;2023-02-18T04:26:26;0.88;;;0.40;;
71759;SDS011;59919;48.112;16.280;2023-02-18T04:29:03;0.73;;;0.60;;
71759;SDS011;59919;48.112;16.280;2023-02-18T04:31:34;0.47;;;0.40;;
71759;SDS011;59919;48.112;16.280;2023-02-18T04:34:05;0.40;;;0.40;;
71759;SDS011;59919;48.112;16.280;2023-02-18T04:36:37;0.30;;;0.30;;
71759;SDS011;59919;48.112;16.280;2023-02-18T04:39:11;0.40;;;0.40;;
71759;SDS011;59919;48.112;16.280;2023-02-18T04:41:45;0.40;;;0.40;;
71759;SDS011;59919;48.112;16.280;2023-02-18T04:44:16;0.60;;;0.50;;
71759;SDS011;59919;48.112;16.280;2023-02-18T04:46:47;0.52;;;0.50;;
71759;SDS011;59919;48.112;16.280;2023-02-18T04:49:20;1.10;;;0.50;;
71759;SDS011;59919;48.112;16.280;2023-02-18T04:51:54;1.02;;;0.57;;
71759;SDS011;59919;48.112;16.280;2023-02-18T04:54:28;0.50;;;0.40;;
71759;SDS011;59919;48.112;16.280;2023-02-18T04:57:02;0.82;;;0.63;;
71759;SDS011;59919;48.112;16.280;2023-02-18T04:59:33;0.73;;;0.50;;
71759;SDS011;59919;48.112;16.280;2023-02-18T05:02:07;0.50;;;0.50;;
71759;SDS011;59919;48.112;16.280;2023-02-18T05:04:38;1.30;;;0.50;;
71759;SDS011;59919;48.112;16.280;2023-02-18T05:07:12;1.05;;;0.43;;
71759;SDS011;59919;48.112;16.280;2023-02-18T05:09:43;0.40;;;0.40;;
71759;SDS011;59919;48.112;16.280;2023-02-18T05:12:14;0.88;;;0.50;;
71759;SDS011;59919;48.112;16.280;2023-02-18T05:14:45;0.65;;;0.40;;
71759;SDS011;59919;48.112;16.280;2023-02-18T05:17:17;0.50;;;0.40;;
71759;SDS011;59919;48.112;16.280;2023-02-18T05:19:52;0.77;;;0.50;;
71759;SDS011;59919;48.112;16.280;2023-02-18T05:22:26;0.50;;;0.50;;
71759;SDS011;59919;48.112;16.280;2023-02-18T05:24:59;0.40;;;0.40;;
71759;SDS011;59919;48.112;16.280;2023-02-18T05:27:30;0.52;;;0.40;;
71759;SDS011;59919;48.112;16.280;2023-02-18T05:30:02;0.82;;;0.40;;
71759;SDS011;59919;48.112;16.280;2023-02-18T05:32:38;0.40;;;0.40;;
71759;SDS011;59919;48.112;16.280;2023-02-18T05:35:12;0.40;;;0.40;;
71759;SDS011;59919;48.112;16.280;2023-02-18T05:37:43;0.57;;;0.38;;
71759;SDS011;59919;48.112;16.280;2023-02-18T05:40:14;0.60;;;0.40;;
71759;SDS011;59919;48.112;16.280;2023-02-18T05:42:47;0.40;;;0.38;;
71759;SDS011;59919;48.112;16.280;2023-02-18T05:45:18;2.17;;;0.50;;
71759;SDS011;59919;48.112;16.280;2023-02-18T05:47:49;0.40;;;0.30;;
71759;SDS011;59919;48.112;16.280;2023-02-18T05:50:20;0.50;;;0.43;;
71759;SDS011;59919;48.112;16.280;2023-02-18T05:52:51;0.50;;;0.30;;
71759;SDS011;59919;48.112;16.280;2023-02-18T05:55:22;0.20;;;0.20;;
71759;SDS011;59919;48.112;16.280;2023-02-18T05:57:54;0.47;;;0.38;;
71759;SDS011;59919;48.112;16.280;2023-02-18T06:00:25;0.60;;;0.40;;
71759;SDS011;59919;48.112;16.280;2023-02-18T06:03:00;0.38;;;0.30;;
71759;SDS011;59919;48.112;16.280;2023-02-18T06:05:31;0.52;;;0.50;;
71759;SDS011;59919;48.112;16.280;2023-02-18T06:08:02;0.35;;;0.35;;
71759;SDS011;59919;48.112;16.280;2023-02-18T06:10:33;0.40;;;0.40;;
71759;SDS011;59919;48.112;16.280;2023-02-18T06:13:04;0.40;;;0.40;;
71759;SDS011;59919;48.112;16.280;2023-02-18T06:15:35;0.35;;;0.30;;
71759;SDS011;59919;48.112;16.280;2023-02-18T06:18:07;0.50;;;0.30;;
71759;SDS011;59919;48.112;16.280;2023-02-18T06:20:38;0.60;;;0.40;;
71759;SDS011;59919;48.112;16.280;2023-02-18T06:23:10;0.30;;;0.30;;
71759;SDS011;59919;48.112;16.280;2023-02-18T06:25:41;0.40;;;0.30;;
71759;SDS011;59919;48.112;16.280;2023-02-18T06:28:13;0.43;;;0.40;;
71759;SDS011;59919;48.112;16.280;2023-02-18T06:30:44;0.40;;;0.40;;
71759;SDS011;59919;48.112;16.280;2023-02-18T06:33:18;0.50;;;0.38;;
71759;SDS011;59919;48.112;16.280;2023-02-18T06:35:59;0.52;;;0.47;;
71759;SDS011;59919;48.112;16.280;2023-02-18T06:38:38;0.30;;;0.30;;
71759;SDS011;59919;48.112;16.280;2023-02-18T06:41:16;0.30;;;0.30;;
71759;SDS011;59919;48.112;16.280;2023-02-18T06:43:47;0.40;;;0.40;;
71759;SDS011;59919;48.112;16.280;2023-02-18T06:46:18;0.25;;;0.22;;
71759;SDS011;59919;48.112;16.280;2023-02-18T06:48:50;1.35;;;0.30;;
71759;SDS011;59919;48.112;16.280;2023-02-18T06:51:21;0.50;;;0.32;;
71759;SDS011;59919;48.112;16.280;2023-02-18T06:53:52;0.68;;;0.40;;
71759;SDS011;59919;48.112;16.280;2023-02-18T06:56:25;0.40;;;0.40;;
71759;SDS011;59919;48.112;16.280;2023-02-18T06:58:56;0.43;;;0.40;;
71759;SDS011;59919;48.112;16.280;2023-02-18T07:01:30;0.40;;;0.40;;
71759;SDS011;59919;48.112;16.280;2023-02-18T07:04:01;0.22;;;0.22;;
71759;SDS011;59919;48.112;16.280;2023-02-18T07:06:32;0.45;;;0.45;;
71759;SDS011;59919;48.112;16.280;2023-02-18T07:09:04;0.45;;;0.40;;
71759;SDS011;59919;48.112;16.280;2023-02-18T07:11:35;0.38;;;0.30;;
71759;SDS011;59919;48.112;16.280;2023-02-18T07:14:06;0.40;;;0.30;;
71759;SDS011;59919;48.112;16.280;2023-02-18T07:16:37;0.65;;;0.40;;
71759;SDS011;59919;48.112;16.280;2023-02-18T07:19:08;0.98;;;0.40;;
71759;SDS011;59919;48.112;16.280;2023-02-18T07:21:39;0.30;;;0.20;;
71759;SDS011;59919;48.112;16.280;2023-02-18T07:24:10;0.25;;;0.25;;
71759;SDS011;59919;48.112;16.280;2023-02-18T07:26:41;0.45;;;0.38;;
71759;SDS011;59919;48.112;16.280;2023-02-18T07:29:13;0.93;;;0.40;;
71759;SDS011;59919;48.112;16.280;2023-02-18T07:31:44;0.30;;;0.30;;
71759;SDS011;59919;48.112;16.280;2023-02-18T07:34:15;0.40;;;0.40;;
71759;SDS011;59919;48.112;16.280;2023-02-18T07:36:46;0.80;;;0.30;;
71759;SDS011;59919;48.112;16.280;2023-02-18T07:39:17;0.30;;;0.30;;
71759;SDS011;59919;48.112;16.280;2023-02-18T07:41:51;0.40;;;0.38;;
71759;SDS011;59919;48.112;16.280;2023-02-18T07:44:22;0.45;;;0.40;;
71759;SDS011;59919;48.112;16.280;2023-02-18T07:46:57;1.30;;;0.40;;
71759;SDS011;59919;48.112;16.280;2023-02-18T07:49:29;0.40;;;0.30;;
71759;SDS011;59919;48.112;16.280;2023-02-18T07:52:00;0.40;;;0.30;;
71759;SDS011;59919;48.112;16.280;2023-02-18T07:54:31;0.30;;;0.30;;
71759;SDS011;59919;48.112;16.280;2023-02-18T07:57:04;0.80;;;0.47;;
71759;SDS011;59919;48.112;16.280;2023-02-18T07:59:35;1.30;;;0.40;;
71759;SDS011;59919;48.112;16.280;2023-02-18T08:02:27;1.33;;;0.45;;
71759;SDS011;59919;48.112;16.280;2023-02-18T08:04:58;0.30;;;0.30;;
71759;SDS011;59919;48.112;16.280;2023-02-18T08:07:29;0.50;;;0.30;;
71759;SDS011;59919;48.112;16.280;2023-02-18T08:10:02;0.50;;;0.50;;
71759;SDS011;59919;48.112;16.280;2023-02-18T08:12:33;2.10;;;0.40;;
71759;SDS011;59919;48.112;16.280;2023-02-18T08:15:04;0.60;;;0.40;;
71759;SDS011;59919;48.112;16.280;2023-02-18T08:17:37;0.60;;;0.45;;
71759;SDS011;59919;48.112;16.280;2023-02-18T08:20:11;0.50;;;0.40;;
71759;SDS011;59919;48.112;16.280;2023-02-18T08:22:42;0.40;;;0.40;;
71759;SDS011;59919;48.112;16.280;2023-02-18T08:25:15;1.15;;;0.63;;
71759;SDS011;59919;48.112;16.280;2023-02-18T08:27:46;3.00;;;0.60;;
71759;SDS011;59919;48.112;16.280;2023-02-18T08:30:18;0.98;;;0.50;;
71759;SDS011;59919;48.112;16.280;2023-02-18T08:32:51;3.03;;;0.50;;
71759;SDS011;59919;48.112;16.280;2023-02-18T08:35:26;0.93;;;0.55;;
71759;SDS011;59919;48.112;16.280;2023-02-18T08:37:58;2.50;;;0.68;;
71759;SDS011;59919;48.112;16.280;2023-02-18T08:40:29;2.65;;;0.55;;
71759;SDS011;59919;48.112;16.280;2023-02-18T08:43:00;1.38;;;0.60;;
71759;SDS011;59919;48.112;16.280;2023-02-18T08:45:31;2.42;;;0.60;;
71759;SDS011;59919;48.112;16.280;2023-02-18T08:48:07;0.60;;;0.53;;
71759;SDS011;59919;48.112;16.280;2023-02-18T08:50:39;1.08;;;0.50;;
71759;SDS011;59919;48.112;16.280;2023-02-18T08:53:10;2.45;;;0.50;;
71759;SDS011;59919;48.112;16.280;2023-02-18T08:55:41;3.58;;;0.60;;
71759;SDS011;59919;48.112;16.280;2023-02-18T08:58:12;1.00;;;0.60;;
71759;SDS011;59919;48.112;16.280;2023-02-18T09:00:44;1.13;;;0.50;;
71759;SDS011;59919;48.112;16.280;2023-02-18T09:03:18;1.02;;;0.70;;
71759;SDS011;59919;48.112;16.280;2023-02-18T09:05:49;0.93;;;0.43;;
71759;SDS011;59919;48.112;16.280;2023-02-18T09:08:20;5.18;;;0.60;;
71759;SDS011;59919;48.112;16.280;2023-02-18T09:10:57;6.07;;;1.23;;
71759;SDS011;59919;48.112;16.280;2023-02-18T09:13:29;2.67;;;0.63;;
71759;SDS011;59919;48.112;16.280;2023-02-18T09:16:10;1.48;;;0.50;;
71759;SDS011;59919;48.112;16.280;2023-02-18T09:18:45;2.40;;;0.40;;
71759;SDS011;59919;48.112;16.280;2023-02-18T09:21:17;6.93;;;0.73;;
71759;SDS011;59919;48.112;16.280;2023-02-18T09:23:50;1.83;;;0.60;;
71759;SDS011;59919;48.112;16.280;2023-02-18T09:26:22;0.77;;;0.47;;
71759;SDS011;59919;48.112;16.280;2023-02-18T09:28:55;1.40;;;0.60;;
71759;SDS011;59919;48.112;16.280;2023-02-18T09:31:29;2.53;;;0.65;;
71759;SDS011;59919;48.112;16.280;2023-02-18T09:34:03;2.28;;;0.52;;
71759;SDS011;59919;48.112;16.280;2023-02-18T09:36:34;3.53;;;0.70;;
71759;SDS011;59919;48.112;16.280;2023-02-18T09:39:05;1.23;;;0.40;;
71759;SDS011;59919;48.112;16.280;2023-02-18T09:44:25;1.33;;;0.50;;
71759;SDS011;59919;48.112;16.280;2023-02-18T09:47:15;1.20;;;0.50;;
71759;SDS011;59919;48.112;16.280;2023-02-18T09:49:50;2.50;;;0.60;;
71759;SDS011;59919;48.112;16.280;2023-02-18T09:52:42;0.85;;;0.50;;
71759;SDS011;59919;48.112;16.280;2023-02-18T09:55:18;1.25;;;0.60;;
71759;SDS011;59919;48.112;16.280;2023-02-18T09:58:04;1.20;;;0.55;;
71759;SDS011;59919;48.112;16.280;2023-02-18T10:00:45;2.42;;;0.50;;
71759;SDS011;59919;48.112;16.280;2023-02-18T10:03:24;1.83;;;0.50;;
71759;SDS011;59919;48.112;16.280;2023-02-18T10:13:53;2.42;;;0.50;;
71759;SDS011;59919;48.112;16.280;2023-02-18T10:16:27;1.77;;;0.50;;
71759;SDS011;59919;48.112;16.280;2023-02-18T10:19:00;0.80;;;0.43;;
71759;SDS011;59919;48.112;16.280;2023-02-18T10:21:46;0.65;;;0.43;;
71759;SDS011;59919;48.112;16.280;2023-02-18T10:24:24;1.38;;;0.50;;
71759;SDS011;59919;48.112;16.280;2023-02-18T10:27:03;0.40;;;0.40;;
71759;SDS011;59919;48.112;16.280;2023-02-18T10:29:38;0.40;;;0.40;;
71759;SDS011;59919;48.112;16.280;2023-02-18T10:35:11;1.20;;;0.70;;
71759;SDS011;59919;48.112;16.280;2023-02-18T10:43:45;0.40;;;0.40;;
71759;SDS011;59919;48.112;16.280;2023-02-18T10:52:20;1.70;;;0.63;;
71759;SDS011;59919;48.112;16.280;2023-02-18T10:54:56;0.98;;;0.40;;
71759;SDS011;59919;48.112;16.280;2023-02-18T10:57:49;1.60;;;0.40;;
71759;SDS011;59919;48.112;16.280;2023-02-18T11:00:22;1.95;;;0.50;;
71759;SDS011;59919;48.112;16.280;2023-02-18T11:03:15;0.45;;;0.40;;
71759;SDS011;59919;48.112;16.280;2023-02-18T11:05:53;1.20;;;0.50;;
71759;SDS011;59919;48.112;16.280;2023-02-18T11:08:27;0.65;;;0.28;;
71759;SDS011;59919;48.112;16.280;2023-02-18T11:14:20;2.35;;;0.40;;
71759;SDS011;59919;48.112;16.280;2023-02-18T11:20:21;0.40;;;0.30;;
71759;SDS011;59919;48.112;16.280;2023-02-18T11:25:30;2.05;;;0.40;;
71759;SDS011;59919;48.112;16.280;2023-02-18T11:30:53;1.60;;;0.45;;
71759;SDS011;59919;48.112;16.280;2023-02-18T11:33:35;0.75;;;0.40;;
71759;SDS011;59919;48.112;16.280;2023-02-18T11:38:54;0.90;;;0.50;;
71759;SDS011;59919;48.112;16.280;2023-02-18T11:41:36;0.82;;;0.40;;
71759;SDS011;59919;48.112;16.280;2023-02-18T11:44:29;0.47;;;0.32;;
71759;SDS011;59919;48.112;16.280;2023-02-18T11:49:58;2.15;;;0.47;;
71759;SDS011;59919;48.112;16.280;2023-02-18T11:52:34;1.30;;;0.50;;
71759;SDS011;59919;48.112;16.280;2023-02-18T11:55:15;2.30;;;0.50;;
71759;SDS011;59919;48.112;16.280;2023-02-18T11:57:59;0.80;;;0.50;;
71759;SDS011;59919;48.112;16.280;2023-02-18T12:00:39;2.25;;;0.55;;
71759;SDS011;59919;48.112;16.280;2023-02-18T12:05:47;0.55;;;0.43;;
71759;SDS011;59919;48.112;16.280;2023-02-18T12:08:21;1.25;;;0.50;;
71759;SDS011;59919;48.112;16.280;2023-02-18T12:11:04;0.77;;;0.50;;
71759;SDS011;59919;48.112;16.280;2023-02-18T12:13:50;1.48;;;0.60;;
71759;SDS011;59919;48.112;16.280;2023-02-18T12:31:11;0.77;;;0.40;;
71759;SDS011;59919;48.112;16.280;2023-02-18T12:34:09;0.52;;;0.50;;
71759;SDS011;59919;48.112;16.280;2023-02-18T12:36:46;0.68;;;0.40;;
71759;SDS011;59919;48.112;16.280;2023-02-18T12:42:52;0.40;;;0.32;;
71759;SDS011;59919;48.112;16.280;2023-02-18T12:51:24;1.33;;;0.73;;
71759;SDS011;59919;48.112;16.280;2023-02-18T12:54:12;1.52;;;0.60;;
71759;SDS011;59919;48.112;16.280;2023-02-18T12:57:07;1.95;;;0.70;;
71759;SDS011;59919;48.112;16.280;2023-02-18T13:13:54;1.98;;;0.50;;
71759;SDS011;59919;48.112;16.280;2023-02-18T13:16:50;0.98;;;0.60;;
71759;SDS011;59919;48.112;16.280;2023-02-18T13:19:35;1.58;;;0.60;;
71759;SDS011;59919;48.112;16.280;2023-02-18T13:22:15;1.60;;;0.50;;
71759;SDS011;59919;48.112;16.280;2023-02-18T13:24:50;1.30;;;0.60;;
71759;SDS011;59919;48.112;16.280;2023-02-18T13:27:38;0.43;;;0.43;;
71759;SDS011;59919;48.112;16.280;2023-02-18T13:30:27;0.73;;;0.40;;
71759;SDS011;59919;48.112;16.280;2023-02-18T13:33:13;1.60;;;0.60;;
71759;SDS011;59919;48.112;16.280;2023-02-18T13:36:29;0.88;;;0.40;;
71759;SDS011;59919;48.112;16.280;2023-02-18T13:39:15;0.90;;;0.50;;
71759;SDS011;59919;48.112;16.280;2023-02-18T13:41:50;1.52;;;0.50;;
71759;SDS011;59919;48.112;16.280;2023-02-18T13:44:41;0.60;;;0.40;;
71759;SDS011;59919;48.112;16.280;2023-02-18T13:47:51;0.82;;;0.40;;
71759;SDS011;59919;48.112;16.280;2023-02-18T13:50:31;0.40;;;0.40;;
71759;SDS011;59919;48.112;16.280;2023-02-18T14:03:36;0.85;;;0.40;;
71759;SDS011;59919;48.112;16.280;2023-02-18T14:12:34;0.45;;;0.35;;
71759;SDS011;59919;48.112;16.280;2023-02-18T14:14:54;0.30;;;0.30;;
71759;SDS011;59919;48.112;16.280;2023-02-18T14:17:29;0.30;;;0.30;;
71759;SDS011;59919;48.112;16.280;2023-02-18T14:22:46;0.40;;;0.40;;
71759;SDS011;59919;48.112;16.280;2023-02-18T14:28:00;0.22;;;0.22;;
71759;SDS011;59919;48.112;16.280;2023-02-18T14:30:39;1.73;;;0.40;;
71759;SDS011;59919;48.112;16.280;2023-02-18T14:33:13;0.35;;;0.30;;
71759;SDS011;59919;48.112;16.280;2023-02-18T14:35:52;0.60;;;0.30;;
71759;SDS011;59919;48.112;16.280;2023-02-18T14:50:12;0.40;;;0.32;;
71759;SDS011;59919;48.112;16.280;2023-02-18T14:52:53;0.35;;;0.30;;
71759;SDS011;59919;48.112;16.280;2023-02-18T14:55:38;0.57;;;0.40;;
71759;SDS011;59919;48.112;16.280;2023-02-18T15:01:06;0.30;;;0.30;;
71759;SDS011;59919;48.112;16.280;2023-02-18T15:03:52;0.80;;;0.40;;
71759;SDS011;59919;48.112;16.280;2023-02-18T15:06:28;0.65;;;0.40;;
71759;SDS011;59919;48.112;16.280;2023-02-18T15:11:51;1.77;;;0.40;;
71759;SDS011;59919;48.112;16.280;2023-02-18T15:14:37;2.10;;;0.43;;
71759;SDS011;59919;48.112;16.280;2023-02-18T15:17:14;1.30;;;0.50;;
71759;SDS011;59919;48.112;16.280;2023-02-18T15:19:49;2.80;;;0.30;;
71759;SDS011;59919;48.112;16.280;2023-02-18T15:22:23;1.48;;;0.35;;
71759;SDS011;59919;48.112;16.280;2023-02-18T15:24:56;1.95;;;0.40;;
71759;SDS011;59919;48.112;16.280;2023-02-18T15:27:31;1.75;;;0.30;;
71759;SDS011;59919;48.112;16.280;2023-02-18T15:32:51;2.28;;;0.40;;
71759;SDS011;59919;48.112;16.280;2023-02-18T15:35:29;1.10;;;0.20;;
71759;SDS011;59919;48.112;16.280;2023-02-18T15:38:02;0.55;;;0.35;;
71759;SDS011;59919;48.112;16.280;2023-02-18T15:40:34;3.80;;;0.30;;
71759;SDS011;59919;48.112;16.280;2023-02-18T15:43:11;4.22;;;0.60;;
71759;SDS011;59919;48.112;16.280;2023-02-18T15:45:47;1.90;;;0.60;;
71759;SDS011;59919;48.112;16.280;2023-02-18T15:48:26;4.37;;;1.00;;
71759;SDS011;59919;48.112;16.280;2023-02-18T15:51:16;6.72;;;2.15;;
71759;SDS011;59919;48.112;16.280;2023-02-18T15:53:53;10.68;;;2.28;;
71759;SDS011;59919;48.112;16.280;2023-02-18T15:56:31;8.23;;;2.67;;
71759;SDS011;59919;48.112;16.280;2023-02-18T16:04:44;8.40;;;2.15;;
71759;SDS011;59919;48.112;16.280;2023-02-18T16:07:19;7.47;;;1.92;;
71759;SDS011;59919;48.112;16.280;2023-02-18T16:13:05;15.75;;;2.95;;
71759;SDS011;59919;48.112;16.280;2023-02-18T16:15:40;5.65;;;2.00;;
71759;SDS011;59919;48.112;16.280;2023-02-18T16:21:04;10.75;;;2.30;;
71759;SDS011;59919;48.112;16.280;2023-02-18T16:23:57;10.95;;;2.00;;
71759;SDS011;59919;48.112;16.280;2023-02-18T16:31:44;8.50;;;2.47;;
71759;SDS011;59919;48.112;16.280;2023-02-18T16:34:15;6.90;;;1.80;;
71759;SDS011;59919;48.112;16.280;2023-02-18T16:36:46;13.73;;;2.20;;
71759;SDS011;59919;48.112;16.280;2023-02-18T16:39:35;8.68;;;1.95;;
71759;SDS011;59919;48.112;16.280;2023-02-18T16:42:10;9.10;;;2.05;;
71759;SDS011;59919;48.112;16.280;2023-02-18T16:44:44;6.13;;;1.67;;
71759;SDS011;59919;48.112;16.280;2023-02-18T16:47:17;3.90;;;1.80;;
71759;SDS011;59919;48.112;16.280;2023-02-18T16:49:49;8.77;;;1.90;;
71759;SDS011;59919;48.112;16.280;2023-02-18T16:52:21;7.40;;;1.83;;
71759;SDS011;59919;48.112;16.280;2023-02-18T16:54:52;10.23;;;2.33;;
71759;SDS011;59919;48.112;16.280;2023-02-18T16:57:24;6.13;;;1.67;;
71759;SDS011;59919;48.112;16.280;2023-02-18T16:59:56;4.10;;;1.77;;
71759;SDS011;59919;48.112;16.280;2023-02-18T17:02:27;6.70;;;1.52;;
71759;SDS011;59919;48.112;16.280;2023-02-18T17:05:00;6.50;;;1.80;;
71759;SDS011;59919;48.112;16.280;2023-02-18T17:07:31;11.95;;;1.85;;
71759;SDS011;59919;48.112;16.280;2023-02-18T17:10:06;4.80;;;1.50;;
71759;SDS011;59919;48.112;16.280;2023-02-18T17:12:37;4.22;;;1.17;;
71759;SDS011;59919;48.112;16.280;2023-02-18T17:15:31;5.07;;;1.30;;
71759;SDS011;59919;48.112;16.280;2023-02-18T17:18:04;6.38;;;1.33;;
71759;SDS011;59919;48.112;16.280;2023-02-18T17:20:35;6.25;;;1.63;;
71759;SDS011;59919;48.112;16.280;2023-02-18T17:23:08;4.75;;;1.35;;
71759;SDS011;59919;48.112;16.280;2023-02-18T17:25:43;5.13;;;1.23;;
71759;SDS011;59919;48.112;16.280;2023-02-18T17:28:18;5.90;;;1.45;;
71759;SDS011;59919;48.112;16.280;2023-02-18T17:30:51;6.38;;;1.75;;
71759;SDS011;59919;48.112;16.280;2023-02-18T17:33:26;6.72;;;1.20;;
71759;SDS011;59919;48.112;16.280;2023-02-18T17:35:59;2.80;;;1.23;;
71759;SDS011;59919;48.112;16.280;2023-02-18T17:38:30;8.73;;;1.40;;
71759;SDS011;59919;48.112;16.280;2023-02-18T17:41:05;2.85;;;1.33;;
71759;SDS011;59919;48.112;16.280;2023-02-18T17:43:37;6.05;;;1.33;;
71759;SDS011;59919;48.112;16.280;2023-02-18T17:46:11;4.75;;;1.40;;
71759;SDS011;59919;48.112;16.280;2023-02-18T17:48:44;3.22;;;1.20;;
71759;SDS011;59919;48.112;16.280;2023-02-18T17:51:24;3.42;;;1.20;;
71759;SDS011;59919;48.112;16.280;2023-02-18T17:53:56;6.00;;;1.00;;
71759;SDS011;59919;48.112;16.280;2023-02-18T17:56:27;2.35;;;1.10;;
71759;SDS011;59919;48.112;16.280;2023-02-18T17:59:00;4.07;;;1.23;;
71759;SDS011;59919;48.112;16.280;2023-02-18T18:01:31;2.03;;;0.90;;
71759;SDS011;59919;48.112;16.280;2023-02-18T18:04:03;3.05;;;1.20;;
71759;SDS011;59919;48.112;16.280;2023-02-18T18:06:35;3.35;;;0.90;;
71759;SDS011;59919;48.112;16.280;2023-02-18T18:09:06;3.88;;;0.88;;
71759;SDS011;59919;48.112;16.280;2023-02-18T18:11:38;4.28;;;1.10;;
71759;SDS011;59919;48.112;16.280;2023-02-18T18:14:12;4.10;;;1.20;;
71759;SDS011;59919;48.112;16.280;2023-02-18T18:16:45;2.13;;;1.30;;
71759;SDS011;59919;48.112;16.280;2023-02-18T18:19:19;2.88;;;0.88;;
71759;SDS011;59919;48.112;16.280;2023-02-18T18:21:50;2.63;;;1.00;;
71759;SDS011;59919;48.112;16.280;2023-02-18T18:24:21;4.55;;;0.85;;
71759;SDS011;59919;48.112;16.280;2023-02-18T18:26:52;1.40;;;0.80;;
71759;SDS011;59919;48.112;16.280;2023-02-18T18:29:23;3.55;;;0.93;;
71759;SDS011;59919;48.112;16.280;2023-02-18T18:31:56;3.00;;;1.02;;
71759;SDS011;59919;48.112;16.280;2023-02-18T18:34:27;2.30;;;0.80;;
71759;SDS011;59919;48.112;16.280;2023-02-18T18:37:04;2.17;;;1.13;;